sensor_id;sensor_type;location;lat;lon;timestamp;P1;durP1;ratioP1;P2;durP2;ratioP2
81006;SDS011;70472;47.592;17.640;2023-12-07T00:00:04;44.50;;;44.50;;
81006;SDS011;70472;47.592;17.640;2023-12-07T00:00:37;43.93;;;43.93;;
81006;SDS011;70472;47.592;17.640;2023-12-07T00:01:10;45.43;;;45.43;;
81006;SDS011;70472;47.592;17.640;2023-12-07T00:01:42;43.47;;;43.40;;
81006;SDS011;70472;47.592;17.640;2023-12-07T00:02:15;43.77;;;43.77;;
81006;SDS011;70472;47.592;17.640;2023-12-07T00:02:47;45.37;;;45.33;;
81006;SDS011;70472;47.592;17.640;2023-12-07T00:03:20;43.83;;;43.63;;
81006;SDS011;70472;47.592;17.640;2023-12-07T00:03:52;45.37;;;44.60;;
81006;SDS011;70472;47.592;17.640;2023-12-07T00:04:25;43.23;;;43.17;;
81006;SDS011;70472;47.592;17.640;2023-12-07T00:04:57;45.07;;;45.00;;
81006;SDS011;70472;47.592;17.640;2023-12-07T00:05:29;45.90;;;45.90;;
81006;SDS011;70472;47.592;17.640;2023-12-07T00:06:04;46.83;;;46.53;;
81006;SDS011;70472;47.592;17.640;2023-12-07T00:06:36;45.20;;;44.77;;
81006;SDS011;70472;47.592;17.640;2023-12-07T00:07:09;45.47;;;45.33;;
81006;SDS011;70472;47.592;17.640;2023-12-07T00:07:41;44.63;;;44.63;;
81006;SDS011;70472;47.592;17.640;2023-12-07T00:08:15;46.50;;;46.13;;
81006;SDS011;70472;47.592;17.640;2023-12-07T00:08:47;46.63;;;46.60;;
81006;SDS011;70472;47.592;17.640;2023-12-07T00:09:20;45.13;;;45.03;;
81006;SDS011;70472;47.592;17.640;2023-12-07T00:09:52;46.13;;;46.03;;
81006;SDS011;70472;47.592;17.640;2023-12-07T00:10:24;46.90;;;46.03;;
81006;SDS011;70472;47.592;17.640;2023-12-07T00:10:57;46.80;;;45.80;;
81006;SDS011;70472;47.592;17.640;2023-12-07T00:11:29;44.63;;;44.17;;
81006;SDS011;70472;47.592;17.640;2023-12-07T00:12:02;44.70;;;44.70;;
81006;SDS011;70472;47.592;17.640;2023-12-07T00:12:35;44.63;;;44.20;;
81006;SDS011;70472;47.592;17.640;2023-12-07T00:13:07;44.40;;;44.37;;
81006;SDS011;70472;47.592;17.640;2023-12-07T00:13:39;44.60;;;44.40;;
81006;SDS011;70472;47.592;17.640;2023-12-07T00:14:12;44.50;;;44.47;;
81006;SDS011;70472;47.592;17.640;2023-12-07T00:14:44;45.23;;;44.43;;
81006;SDS011;70472;47.592;17.640;2023-12-07T00:15:17;45.07;;;45.00;;
81006;SDS011;70472;47.592;17.640;2023-12-07T00:15:49;43.97;;;43.97;;
81006;SDS011;70472;47.592;17.640;2023-12-07T00:16:23;42.13;;;42.10;;
81006;SDS011;70472;47.592;17.640;2023-12-07T00:16:56;41.67;;;41.67;;
81006;SDS011;70472;47.592;17.640;2023-12-07T00:17:28;43.60;;;43.60;;
81006;SDS011;70472;47.592;17.640;2023-12-07T00:18:01;44.77;;;44.77;;
81006;SDS011;70472;47.592;17.640;2023-12-07T00:18:33;44.33;;;44.33;;
81006;SDS011;70472;47.592;17.640;2023-12-07T00:19:06;45.87;;;45.57;;
81006;SDS011;70472;47.592;17.640;2023-12-07T00:19:38;44.40;;;44.40;;
81006;SDS011;70472;47.592;17.640;2023-12-07T00:20:11;43.17;;;43.17;;
81006;SDS011;70472;47.592;17.640;2023-12-07T00:20:43;42.13;;;42.13;;
81006;SDS011;70472;47.592;17.640;2023-12-07T00:21:16;42.63;;;42.37;;
81006;SDS011;70472;47.592;17.640;2023-12-07T00:21:48;43.13;;;42.50;;
81006;SDS011;70472;47.592;17.640;2023-12-07T00:22:22;42.00;;;41.63;;
81006;SDS011;70472;47.592;17.640;2023-12-07T00:22:54;43.27;;;43.23;;
81006;SDS011;70472;47.592;17.640;2023-12-07T00:23:27;45.20;;;44.67;;
81006;SDS011;70472;47.592;17.640;2023-12-07T00:23:59;43.07;;;43.03;;
81006;SDS011;70472;47.592;17.640;2023-12-07T00:24:32;43.80;;;43.77;;
81006;SDS011;70472;47.592;17.640;2023-12-07T00:25:04;44.50;;;44.50;;
81006;SDS011;70472;47.592;17.640;2023-12-07T00:25:38;44.97;;;44.97;;
81006;SDS011;70472;47.592;17.640;2023-12-07T00:26:10;42.40;;;42.40;;
81006;SDS011;70472;47.592;17.640;2023-12-07T00:26:43;42.57;;;42.30;;
81006;SDS011;70472;47.592;17.640;2023-12-07T00:27:15;41.60;;;41.60;;
81006;SDS011;70472;47.592;17.640;2023-12-07T00:27:48;43.93;;;43.93;;
81006;SDS011;70472;47.592;17.640;2023-12-07T00:28:21;43.03;;;43.03;;
81006;SDS011;70472;47.592;17.640;2023-12-07T00:28:53;43.57;;;43.57;;
81006;SDS011;70472;47.592;17.640;2023-12-07T00:29:25;43.67;;;43.67;;
81006;SDS011;70472;47.592;17.640;2023-12-07T00:29:58;42.67;;;42.60;;
81006;SDS011;70472;47.592;17.640;2023-12-07T00:30:31;43.07;;;43.07;;
81006;SDS011;70472;47.592;17.640;2023-12-07T00:31:03;43.30;;;43.30;;
81006;SDS011;70472;47.592;17.640;2023-12-07T00:31:35;42.23;;;42.23;;
81006;SDS011;70472;47.592;17.640;2023-12-07T00:32:08;43.53;;;43.53;;
81006;SDS011;70472;47.592;17.640;2023-12-07T00:32:41;42.27;;;42.27;;
81006;SDS011;70472;47.592;17.640;2023-12-07T00:33:13;42.10;;;42.10;;
81006;SDS011;70472;47.592;17.640;2023-12-07T00:33:46;41.73;;;41.73;;
81006;SDS011;70472;47.592;17.640;2023-12-07T00:34:18;42.50;;;42.50;;
81006;SDS011;70472;47.592;17.640;2023-12-07T00:34:51;41.47;;;41.47;;
81006;SDS011;70472;47.592;17.640;2023-12-07T00:35:23;42.00;;;42.00;;
81006;SDS011;70472;47.592;17.640;2023-12-07T00:35:56;42.93;;;42.93;;
81006;SDS011;70472;47.592;17.640;2023-12-07T00:36:28;43.50;;;43.20;;
81006;SDS011;70472;47.592;17.640;2023-12-07T00:37:01;43.00;;;42.97;;
81006;SDS011;70472;47.592;17.640;2023-12-07T00:37:33;43.47;;;43.07;;
81006;SDS011;70472;47.592;17.640;2023-12-07T00:38:06;44.17;;;43.23;;
81006;SDS011;70472;47.592;17.640;2023-12-07T00:38:38;42.73;;;42.70;;
81006;SDS011;70472;47.592;17.640;2023-12-07T00:39:11;42.83;;;42.83;;
81006;SDS011;70472;47.592;17.640;2023-12-07T00:39:43;43.20;;;43.20;;
81006;SDS011;70472;47.592;17.640;2023-12-07T00:40:15;41.83;;;41.83;;
81006;SDS011;70472;47.592;17.640;2023-12-07T00:40:48;43.43;;;43.00;;
81006;SDS011;70472;47.592;17.640;2023-12-07T00:41:22;44.53;;;43.50;;
81006;SDS011;70472;47.592;17.640;2023-12-07T00:41:54;42.13;;;41.97;;
81006;SDS011;70472;47.592;17.640;2023-12-07T00:42:27;42.50;;;42.50;;
81006;SDS011;70472;47.592;17.640;2023-12-07T00:42:59;42.13;;;42.13;;
81006;SDS011;70472;47.592;17.640;2023-12-07T00:43:32;42.83;;;42.83;;
81006;SDS011;70472;47.592;17.640;2023-12-07T00:44:04;41.10;;;41.10;;
81006;SDS011;70472;47.592;17.640;2023-12-07T00:44:40;41.03;;;41.03;;
81006;SDS011;70472;47.592;17.640;2023-12-07T00:45:13;39.73;;;39.73;;
81006;SDS011;70472;47.592;17.640;2023-12-07T00:45:45;40.87;;;40.87;;
81006;SDS011;70472;47.592;17.640;2023-12-07T00:46:18;42.13;;;42.13;;
81006;SDS011;70472;47.592;17.640;2023-12-07T00:46:50;42.07;;;42.07;;
81006;SDS011;70472;47.592;17.640;2023-12-07T00:47:23;42.27;;;42.17;;
81006;SDS011;70472;47.592;17.640;2023-12-07T00:47:55;42.93;;;42.93;;
81006;SDS011;70472;47.592;17.640;2023-12-07T00:48:28;42.37;;;42.30;;
81006;SDS011;70472;47.592;17.640;2023-12-07T00:49:00;42.60;;;42.30;;
81006;SDS011;70472;47.592;17.640;2023-12-07T00:49:33;41.80;;;41.80;;
81006;SDS011;70472;47.592;17.640;2023-12-07T00:50:05;42.97;;;42.93;;
81006;SDS011;70472;47.592;17.640;2023-12-07T00:50:38;41.27;;;41.27;;
81006;SDS011;70472;47.592;17.640;2023-12-07T00:51:11;41.80;;;41.77;;
81006;SDS011;70472;47.592;17.640;2023-12-07T00:51:43;40.93;;;40.93;;
81006;SDS011;70472;47.592;17.640;2023-12-07T00:52:15;41.97;;;41.97;;
81006;SDS011;70472;47.592;17.640;2023-12-07T00:52:48;43.77;;;43.77;;
81006;SDS011;70472;47.592;17.640;2023-12-07T00:53:20;45.10;;;44.73;;
81006;SDS011;70472;47.592;17.640;2023-12-07T00:53:53;43.43;;;43.40;;
81006;SDS011;70472;47.592;17.640;2023-12-07T00:54:25;43.57;;;43.57;;
81006;SDS011;70472;47.592;17.640;2023-12-07T00:54:58;43.53;;;43.53;;
81006;SDS011;70472;47.592;17.640;2023-12-07T00:55:30;43.87;;;43.87;;
81006;SDS011;70472;47.592;17.640;2023-12-07T00:56:03;44.43;;;44.33;;
81006;SDS011;70472;47.592;17.640;2023-12-07T00:56:36;42.90;;;42.70;;
81006;SDS011;70472;47.592;17.640;2023-12-07T00:57:11;43.03;;;43.03;;
81006;SDS011;70472;47.592;17.640;2023-12-07T00:57:44;46.03;;;46.03;;
81006;SDS011;70472;47.592;17.640;2023-12-07T00:58:16;44.63;;;44.63;;
81006;SDS011;70472;47.592;17.640;2023-12-07T00:58:49;43.87;;;43.87;;
81006;SDS011;70472;47.592;17.640;2023-12-07T00:59:21;46.07;;;45.97;;
81006;SDS011;70472;47.592;17.640;2023-12-07T00:59:54;44.63;;;44.60;;
81006;SDS011;70472;47.592;17.640;2023-12-07T01:00:27;45.13;;;45.13;;
81006;SDS011;70472;47.592;17.640;2023-12-07T01:00:59;44.13;;;44.13;;
81006;SDS011;70472;47.592;17.640;2023-12-07T01:01:32;44.67;;;44.57;;
81006;SDS011;70472;47.592;17.640;2023-12-07T01:02:06;45.97;;;45.87;;
81006;SDS011;70472;47.592;17.640;2023-12-07T01:02:39;45.67;;;45.63;;
81006;SDS011;70472;47.592;17.640;2023-12-07T01:03:11;45.10;;;44.90;;
81006;SDS011;70472;47.592;17.640;2023-12-07T01:03:44;44.17;;;43.97;;
81006;SDS011;70472;47.592;17.640;2023-12-07T01:04:16;45.57;;;45.57;;
81006;SDS011;70472;47.592;17.640;2023-12-07T01:04:49;44.70;;;44.67;;
81006;SDS011;70472;47.592;17.640;2023-12-07T01:05:21;44.73;;;44.73;;
81006;SDS011;70472;47.592;17.640;2023-12-07T01:05:54;45.40;;;45.40;;
81006;SDS011;70472;47.592;17.640;2023-12-07T01:06:26;44.87;;;44.87;;
81006;SDS011;70472;47.592;17.640;2023-12-07T01:06:59;43.10;;;43.07;;
81006;SDS011;70472;47.592;17.640;2023-12-07T01:07:32;43.67;;;43.60;;
81006;SDS011;70472;47.592;17.640;2023-12-07T01:08:04;42.63;;;42.63;;
81006;SDS011;70472;47.592;17.640;2023-12-07T01:08:37;43.63;;;43.63;;
81006;SDS011;70472;47.592;17.640;2023-12-07T01:09:10;44.33;;;44.33;;
81006;SDS011;70472;47.592;17.640;2023-12-07T01:09:42;45.80;;;45.80;;
81006;SDS011;70472;47.592;17.640;2023-12-07T01:10:14;42.90;;;42.87;;
81006;SDS011;70472;47.592;17.640;2023-12-07T01:10:47;44.50;;;43.97;;
81006;SDS011;70472;47.592;17.640;2023-12-07T01:11:19;43.97;;;43.97;;
81006;SDS011;70472;47.592;17.640;2023-12-07T01:11:52;43.10;;;43.00;;
81006;SDS011;70472;47.592;17.640;2023-12-07T01:12:25;44.47;;;44.43;;
81006;SDS011;70472;47.592;17.640;2023-12-07T01:12:57;46.70;;;46.43;;
81006;SDS011;70472;47.592;17.640;2023-12-07T01:13:30;43.27;;;43.13;;
81006;SDS011;70472;47.592;17.640;2023-12-07T01:14:02;44.20;;;44.13;;
81006;SDS011;70472;47.592;17.640;2023-12-07T01:14:35;43.83;;;43.83;;
81006;SDS011;70472;47.592;17.640;2023-12-07T01:15:07;44.20;;;44.17;;
81006;SDS011;70472;47.592;17.640;2023-12-07T01:15:40;42.87;;;42.87;;
81006;SDS011;70472;47.592;17.640;2023-12-07T01:16:12;42.47;;;42.47;;
81006;SDS011;70472;47.592;17.640;2023-12-07T01:16:45;42.67;;;42.57;;
81006;SDS011;70472;47.592;17.640;2023-12-07T01:17:17;45.00;;;45.00;;
81006;SDS011;70472;47.592;17.640;2023-12-07T01:17:50;45.27;;;45.27;;
81006;SDS011;70472;47.592;17.640;2023-12-07T01:18:23;44.73;;;44.70;;
81006;SDS011;70472;47.592;17.640;2023-12-07T01:18:56;42.60;;;42.40;;
81006;SDS011;70472;47.592;17.640;2023-12-07T01:19:28;42.63;;;42.63;;
81006;SDS011;70472;47.592;17.640;2023-12-07T01:20:01;43.93;;;43.87;;
81006;SDS011;70472;47.592;17.640;2023-12-07T01:20:33;44.77;;;44.13;;
81006;SDS011;70472;47.592;17.640;2023-12-07T01:21:06;45.37;;;44.63;;
81006;SDS011;70472;47.592;17.640;2023-12-07T01:21:38;43.53;;;43.53;;
81006;SDS011;70472;47.592;17.640;2023-12-07T01:22:12;42.07;;;42.07;;
81006;SDS011;70472;47.592;17.640;2023-12-07T01:22:44;42.23;;;41.97;;
81006;SDS011;70472;47.592;17.640;2023-12-07T01:23:17;44.33;;;43.80;;
81006;SDS011;70472;47.592;17.640;2023-12-07T01:23:49;44.37;;;44.27;;
81006;SDS011;70472;47.592;17.640;2023-12-07T01:24:25;45.20;;;45.10;;
81006;SDS011;70472;47.592;17.640;2023-12-07T01:24:57;43.37;;;43.37;;
81006;SDS011;70472;47.592;17.640;2023-12-07T01:25:30;42.83;;;42.73;;
81006;SDS011;70472;47.592;17.640;2023-12-07T01:26:03;42.80;;;42.80;;
81006;SDS011;70472;47.592;17.640;2023-12-07T01:26:36;41.53;;;41.37;;
81006;SDS011;70472;47.592;17.640;2023-12-07T01:27:09;43.50;;;43.30;;
81006;SDS011;70472;47.592;17.640;2023-12-07T01:27:41;40.00;;;40.00;;
81006;SDS011;70472;47.592;17.640;2023-12-07T01:28:13;42.97;;;42.83;;
81006;SDS011;70472;47.592;17.640;2023-12-07T01:28:46;43.23;;;43.23;;
81006;SDS011;70472;47.592;17.640;2023-12-07T01:29:19;42.00;;;42.00;;
81006;SDS011;70472;47.592;17.640;2023-12-07T01:29:51;44.10;;;43.97;;
81006;SDS011;70472;47.592;17.640;2023-12-07T01:30:24;44.00;;;43.70;;
81006;SDS011;70472;47.592;17.640;2023-12-07T01:30:56;43.30;;;43.27;;
81006;SDS011;70472;47.592;17.640;2023-12-07T01:31:29;43.63;;;43.43;;
81006;SDS011;70472;47.592;17.640;2023-12-07T01:32:02;43.50;;;43.50;;
81006;SDS011;70472;47.592;17.640;2023-12-07T01:32:34;43.13;;;43.13;;
81006;SDS011;70472;47.592;17.640;2023-12-07T01:33:07;43.27;;;43.17;;
81006;SDS011;70472;47.592;17.640;2023-12-07T01:33:39;43.33;;;43.10;;
81006;SDS011;70472;47.592;17.640;2023-12-07T01:34:12;42.83;;;42.80;;
81006;SDS011;70472;47.592;17.640;2023-12-07T01:34:44;41.67;;;41.53;;
81006;SDS011;70472;47.592;17.640;2023-12-07T01:35:17;43.10;;;43.10;;
81006;SDS011;70472;47.592;17.640;2023-12-07T01:35:50;44.23;;;44.23;;
81006;SDS011;70472;47.592;17.640;2023-12-07T01:36:22;43.40;;;43.40;;
81006;SDS011;70472;47.592;17.640;2023-12-07T01:36:55;43.43;;;43.43;;
81006;SDS011;70472;47.592;17.640;2023-12-07T01:37:27;44.13;;;44.13;;
81006;SDS011;70472;47.592;17.640;2023-12-07T01:38:01;43.50;;;43.50;;
81006;SDS011;70472;47.592;17.640;2023-12-07T01:38:33;41.70;;;41.53;;
81006;SDS011;70472;47.592;17.640;2023-12-07T01:39:06;41.50;;;41.50;;
81006;SDS011;70472;47.592;17.640;2023-12-07T01:39:38;43.43;;;43.40;;
81006;SDS011;70472;47.592;17.640;2023-12-07T01:40:13;42.87;;;42.73;;
81006;SDS011;70472;47.592;17.640;2023-12-07T01:40:45;42.57;;;42.53;;
81006;SDS011;70472;47.592;17.640;2023-12-07T01:41:18;42.50;;;42.50;;
81006;SDS011;70472;47.592;17.640;2023-12-07T01:41:51;42.73;;;42.73;;
81006;SDS011;70472;47.592;17.640;2023-12-07T01:42:23;43.30;;;43.30;;
81006;SDS011;70472;47.592;17.640;2023-12-07T01:42:56;43.57;;;43.57;;
81006;SDS011;70472;47.592;17.640;2023-12-07T01:43:28;40.17;;;39.97;;
81006;SDS011;70472;47.592;17.640;2023-12-07T01:44:01;40.27;;;40.17;;
81006;SDS011;70472;47.592;17.640;2023-12-07T01:44:33;42.70;;;42.67;;
81006;SDS011;70472;47.592;17.640;2023-12-07T01:45:06;42.80;;;42.80;;
81006;SDS011;70472;47.592;17.640;2023-12-07T01:45:39;41.70;;;41.63;;
81006;SDS011;70472;47.592;17.640;2023-12-07T01:46:12;41.33;;;41.27;;
81006;SDS011;70472;47.592;17.640;2023-12-07T01:46:46;43.60;;;43.60;;
81006;SDS011;70472;47.592;17.640;2023-12-07T01:47:19;45.07;;;44.90;;
81006;SDS011;70472;47.592;17.640;2023-12-07T01:47:51;43.17;;;42.90;;
81006;SDS011;70472;47.592;17.640;2023-12-07T01:48:26;42.77;;;42.57;;
81006;SDS011;70472;47.592;17.640;2023-12-07T01:49:00;43.23;;;43.17;;
81006;SDS011;70472;47.592;17.640;2023-12-07T01:49:34;43.30;;;43.23;;
81006;SDS011;70472;47.592;17.640;2023-12-07T01:50:07;42.27;;;42.27;;
81006;SDS011;70472;47.592;17.640;2023-12-07T01:50:44;43.00;;;43.00;;
81006;SDS011;70472;47.592;17.640;2023-12-07T01:51:18;42.93;;;42.83;;
81006;SDS011;70472;47.592;17.640;2023-12-07T01:51:51;43.10;;;43.10;;
81006;SDS011;70472;47.592;17.640;2023-12-07T01:52:25;45.07;;;45.03;;
81006;SDS011;70472;47.592;17.640;2023-12-07T01:53:01;44.33;;;44.17;;
81006;SDS011;70472;47.592;17.640;2023-12-07T01:53:38;44.73;;;44.73;;
81006;SDS011;70472;47.592;17.640;2023-12-07T01:54:11;43.30;;;43.30;;
81006;SDS011;70472;47.592;17.640;2023-12-07T01:54:45;42.53;;;42.53;;
81006;SDS011;70472;47.592;17.640;2023-12-07T01:55:19;42.17;;;42.17;;
81006;SDS011;70472;47.592;17.640;2023-12-07T01:55:53;43.63;;;43.63;;
81006;SDS011;70472;47.592;17.640;2023-12-07T01:56:27;42.70;;;42.70;;
81006;SDS011;70472;47.592;17.640;2023-12-07T01:57:01;44.07;;;44.07;;
81006;SDS011;70472;47.592;17.640;2023-12-07T01:57:35;42.13;;;42.00;;
81006;SDS011;70472;47.592;17.640;2023-12-07T01:58:08;43.87;;;43.83;;
81006;SDS011;70472;47.592;17.640;2023-12-07T01:58:41;43.83;;;43.80;;
81006;SDS011;70472;47.592;17.640;2023-12-07T01:59:15;44.30;;;44.30;;
81006;SDS011;70472;47.592;17.640;2023-12-07T01:59:48;42.53;;;42.53;;
81006;SDS011;70472;47.592;17.640;2023-12-07T02:00:21;42.27;;;42.27;;
81006;SDS011;70472;47.592;17.640;2023-12-07T02:00:54;43.83;;;43.80;;
81006;SDS011;70472;47.592;17.640;2023-12-07T02:01:27;42.47;;;42.47;;
81006;SDS011;70472;47.592;17.640;2023-12-07T02:01:59;42.70;;;42.70;;
81006;SDS011;70472;47.592;17.640;2023-12-07T02:02:32;44.10;;;43.93;;
81006;SDS011;70472;47.592;17.640;2023-12-07T02:03:05;43.07;;;42.43;;
81006;SDS011;70472;47.592;17.640;2023-12-07T02:03:39;42.97;;;42.90;;
81006;SDS011;70472;47.592;17.640;2023-12-07T02:04:12;44.07;;;43.77;;
81006;SDS011;70472;47.592;17.640;2023-12-07T02:04:45;45.73;;;45.67;;
81006;SDS011;70472;47.592;17.640;2023-12-07T02:05:18;46.07;;;45.67;;
81006;SDS011;70472;47.592;17.640;2023-12-07T02:05:51;44.53;;;44.53;;
81006;SDS011;70472;47.592;17.640;2023-12-07T02:06:23;44.23;;;44.20;;
81006;SDS011;70472;47.592;17.640;2023-12-07T02:06:59;45.07;;;44.83;;
81006;SDS011;70472;47.592;17.640;2023-12-07T02:07:33;44.53;;;44.53;;
81006;SDS011;70472;47.592;17.640;2023-12-07T02:08:06;44.40;;;44.40;;
81006;SDS011;70472;47.592;17.640;2023-12-07T02:08:39;42.67;;;42.67;;
81006;SDS011;70472;47.592;17.640;2023-12-07T02:09:11;44.10;;;44.10;;
81006;SDS011;70472;47.592;17.640;2023-12-07T02:09:44;44.10;;;44.10;;
81006;SDS011;70472;47.592;17.640;2023-12-07T02:10:16;43.50;;;43.50;;
81006;SDS011;70472;47.592;17.640;2023-12-07T02:10:49;44.67;;;44.67;;
81006;SDS011;70472;47.592;17.640;2023-12-07T02:11:22;45.60;;;45.60;;
81006;SDS011;70472;47.592;17.640;2023-12-07T02:11:54;44.47;;;44.47;;
81006;SDS011;70472;47.592;17.640;2023-12-07T02:12:29;43.67;;;43.67;;
81006;SDS011;70472;47.592;17.640;2023-12-07T02:13:01;43.03;;;43.03;;
81006;SDS011;70472;47.592;17.640;2023-12-07T02:13:35;43.37;;;43.37;;
81006;SDS011;70472;47.592;17.640;2023-12-07T02:14:11;42.43;;;42.17;;
81006;SDS011;70472;47.592;17.640;2023-12-07T02:14:44;44.50;;;44.17;;
81006;SDS011;70472;47.592;17.640;2023-12-07T02:15:17;44.67;;;44.57;;
81006;SDS011;70472;47.592;17.640;2023-12-07T02:15:49;43.30;;;43.20;;
81006;SDS011;70472;47.592;17.640;2023-12-07T02:18:09;43.60;;;43.60;;
81006;SDS011;70472;47.592;17.640;2023-12-07T02:21:13;43.13;;;43.13;;
81006;SDS011;70472;47.592;17.640;2023-12-07T02:21:59;43.87;;;43.87;;
81006;SDS011;70472;47.592;17.640;2023-12-07T02:22:42;43.43;;;43.17;;
81006;SDS011;70472;47.592;17.640;2023-12-07T02:23:20;43.13;;;42.87;;
81006;SDS011;70472;47.592;17.640;2023-12-07T02:23:58;42.70;;;42.70;;
81006;SDS011;70472;47.592;17.640;2023-12-07T02:24:33;44.60;;;44.60;;
81006;SDS011;70472;47.592;17.640;2023-12-07T02:25:14;45.67;;;45.43;;
81006;SDS011;70472;47.592;17.640;2023-12-07T02:25:53;44.87;;;44.87;;
81006;SDS011;70472;47.592;17.640;2023-12-07T02:26:33;44.33;;;44.33;;
81006;SDS011;70472;47.592;17.640;2023-12-07T02:27:07;43.93;;;43.93;;
81006;SDS011;70472;47.592;17.640;2023-12-07T02:27:43;42.43;;;42.43;;
81006;SDS011;70472;47.592;17.640;2023-12-07T02:28:16;45.07;;;45.07;;
81006;SDS011;70472;47.592;17.640;2023-12-07T02:28:49;45.33;;;45.30;;
81006;SDS011;70472;47.592;17.640;2023-12-07T02:29:21;45.60;;;45.60;;
81006;SDS011;70472;47.592;17.640;2023-12-07T02:29:54;43.93;;;43.93;;
81006;SDS011;70472;47.592;17.640;2023-12-07T02:30:26;43.67;;;43.67;;
81006;SDS011;70472;47.592;17.640;2023-12-07T02:30:58;42.63;;;42.63;;
81006;SDS011;70472;47.592;17.640;2023-12-07T02:31:31;43.43;;;43.43;;
81006;SDS011;70472;47.592;17.640;2023-12-07T02:32:04;44.87;;;44.53;;
81006;SDS011;70472;47.592;17.640;2023-12-07T02:32:37;45.40;;;45.23;;
81006;SDS011;70472;47.592;17.640;2023-12-07T02:33:11;45.63;;;45.10;;
81006;SDS011;70472;47.592;17.640;2023-12-07T02:33:44;47.07;;;46.73;;
81006;SDS011;70472;47.592;17.640;2023-12-07T02:34:16;45.10;;;45.10;;
81006;SDS011;70472;47.592;17.640;2023-12-07T02:34:49;44.60;;;44.60;;
81006;SDS011;70472;47.592;17.640;2023-12-07T02:35:22;45.70;;;45.70;;
81006;SDS011;70472;47.592;17.640;2023-12-07T02:35:55;47.20;;;47.20;;
81006;SDS011;70472;47.592;17.640;2023-12-07T02:36:28;44.13;;;44.13;;
81006;SDS011;70472;47.592;17.640;2023-12-07T02:37:04;44.33;;;44.23;;
81006;SDS011;70472;47.592;17.640;2023-12-07T02:37:38;44.57;;;44.47;;
81006;SDS011;70472;47.592;17.640;2023-12-07T02:38:17;45.30;;;45.23;;
81006;SDS011;70472;47.592;17.640;2023-12-07T02:38:56;43.50;;;43.50;;
81006;SDS011;70472;47.592;17.640;2023-12-07T02:39:30;44.67;;;44.67;;
81006;SDS011;70472;47.592;17.640;2023-12-07T02:40:05;44.30;;;44.30;;
81006;SDS011;70472;47.592;17.640;2023-12-07T02:40:40;44.47;;;44.47;;
81006;SDS011;70472;47.592;17.640;2023-12-07T02:41:20;44.70;;;44.67;;
81006;SDS011;70472;47.592;17.640;2023-12-07T02:41:53;45.57;;;45.47;;
81006;SDS011;70472;47.592;17.640;2023-12-07T02:42:28;45.33;;;44.90;;
81006;SDS011;70472;47.592;17.640;2023-12-07T02:43:01;46.00;;;45.90;;
81006;SDS011;70472;47.592;17.640;2023-12-07T02:43:35;45.30;;;45.30;;
81006;SDS011;70472;47.592;17.640;2023-12-07T02:44:07;45.37;;;45.27;;
81006;SDS011;70472;47.592;17.640;2023-12-07T02:44:40;45.03;;;45.00;;
81006;SDS011;70472;47.592;17.640;2023-12-07T02:45:13;45.67;;;45.37;;
81006;SDS011;70472;47.592;17.640;2023-12-07T02:45:46;45.90;;;45.17;;
81006;SDS011;70472;47.592;17.640;2023-12-07T02:46:20;45.30;;;45.27;;
81006;SDS011;70472;47.592;17.640;2023-12-07T02:46:54;44.43;;;43.87;;
81006;SDS011;70472;47.592;17.640;2023-12-07T02:47:26;46.10;;;45.40;;
81006;SDS011;70472;47.592;17.640;2023-12-07T02:47:59;45.80;;;45.23;;
81006;SDS011;70472;47.592;17.640;2023-12-07T02:48:31;46.37;;;45.67;;
81006;SDS011;70472;47.592;17.640;2023-12-07T02:49:04;43.17;;;43.17;;
81006;SDS011;70472;47.592;17.640;2023-12-07T02:49:38;42.33;;;42.23;;
81006;SDS011;70472;47.592;17.640;2023-12-07T02:50:11;44.70;;;44.70;;
81006;SDS011;70472;47.592;17.640;2023-12-07T02:50:44;43.50;;;43.50;;
81006;SDS011;70472;47.592;17.640;2023-12-07T02:51:16;44.33;;;44.33;;
81006;SDS011;70472;47.592;17.640;2023-12-07T02:51:49;43.00;;;43.00;;
81006;SDS011;70472;47.592;17.640;2023-12-07T02:52:21;44.43;;;44.43;;
81006;SDS011;70472;47.592;17.640;2023-12-07T02:52:54;42.73;;;42.73;;
81006;SDS011;70472;47.592;17.640;2023-12-07T02:53:27;44.57;;;44.57;;
81006;SDS011;70472;47.592;17.640;2023-12-07T02:53:59;44.20;;;44.20;;
81006;SDS011;70472;47.592;17.640;2023-12-07T02:54:32;45.03;;;45.03;;
81006;SDS011;70472;47.592;17.640;2023-12-07T02:55:05;45.50;;;45.50;;
81006;SDS011;70472;47.592;17.640;2023-12-07T02:55:38;42.83;;;42.80;;
81006;SDS011;70472;47.592;17.640;2023-12-07T02:56:10;44.87;;;44.77;;
81006;SDS011;70472;47.592;17.640;2023-12-07T02:56:42;44.27;;;44.23;;
81006;SDS011;70472;47.592;17.640;2023-12-07T02:57:15;42.77;;;42.77;;
81006;SDS011;70472;47.592;17.640;2023-12-07T02:57:48;43.20;;;43.20;;
81006;SDS011;70472;47.592;17.640;2023-12-07T02:58:21;43.30;;;43.30;;
81006;SDS011;70472;47.592;17.640;2023-12-07T02:58:53;42.53;;;42.50;;
81006;SDS011;70472;47.592;17.640;2023-12-07T02:59:26;43.27;;;43.23;;
81006;SDS011;70472;47.592;17.640;2023-12-07T02:59:59;42.53;;;42.53;;
81006;SDS011;70472;47.592;17.640;2023-12-07T03:00:31;42.27;;;42.27;;
81006;SDS011;70472;47.592;17.640;2023-12-07T03:01:04;42.50;;;42.50;;
81006;SDS011;70472;47.592;17.640;2023-12-07T03:01:36;41.67;;;41.67;;
81006;SDS011;70472;47.592;17.640;2023-12-07T03:02:09;43.10;;;43.07;;
81006;SDS011;70472;47.592;17.640;2023-12-07T03:02:41;43.60;;;43.60;;
81006;SDS011;70472;47.592;17.640;2023-12-07T03:03:15;39.80;;;39.80;;
81006;SDS011;70472;47.592;17.640;2023-12-07T03:03:47;41.30;;;41.30;;
81006;SDS011;70472;47.592;17.640;2023-12-07T03:04:20;41.07;;;41.07;;
81006;SDS011;70472;47.592;17.640;2023-12-07T03:04:52;42.93;;;42.93;;
81006;SDS011;70472;47.592;17.640;2023-12-07T03:05:25;44.07;;;43.83;;
81006;SDS011;70472;47.592;17.640;2023-12-07T03:05:57;43.63;;;43.17;;
81006;SDS011;70472;47.592;17.640;2023-12-07T03:06:30;40.43;;;40.40;;
81006;SDS011;70472;47.592;17.640;2023-12-07T03:07:03;40.07;;;39.77;;
81006;SDS011;70472;47.592;17.640;2023-12-07T03:07:35;40.60;;;40.53;;
81006;SDS011;70472;47.592;17.640;2023-12-07T03:08:08;41.07;;;41.07;;
81006;SDS011;70472;47.592;17.640;2023-12-07T03:08:40;40.20;;;40.20;;
81006;SDS011;70472;47.592;17.640;2023-12-07T03:09:13;40.27;;;40.27;;
81006;SDS011;70472;47.592;17.640;2023-12-07T03:09:45;42.53;;;42.53;;
81006;SDS011;70472;47.592;17.640;2023-12-07T03:10:18;41.50;;;41.50;;
81006;SDS011;70472;47.592;17.640;2023-12-07T03:10:51;41.47;;;41.47;;
81006;SDS011;70472;47.592;17.640;2023-12-07T03:11:24;41.03;;;41.03;;
81006;SDS011;70472;47.592;17.640;2023-12-07T03:11:56;41.37;;;41.37;;
81006;SDS011;70472;47.592;17.640;2023-12-07T03:12:29;40.63;;;40.33;;
81006;SDS011;70472;47.592;17.640;2023-12-07T03:13:01;39.73;;;39.40;;
81006;SDS011;70472;47.592;17.640;2023-12-07T03:13:34;40.10;;;40.10;;
81006;SDS011;70472;47.592;17.640;2023-12-07T03:14:07;40.60;;;40.60;;
81006;SDS011;70472;47.592;17.640;2023-12-07T03:14:39;38.50;;;38.50;;